MSC Giovanna — 3FRB9 — position and weather

sailwx.info

Track history (hours):
 
Tides and Currents Weather Stations Pressure Air Temp Water Temp Dewpoint Dewpoint Depression Visibility Wind Speed Wind Dir Waves Ship Positions

MSC Giovanna

Last reported at 2014-Sep-02 23:33 UTC. Time now 2014-Sep-02 23:43 UTC.
Position N 37°02' E 026°05'.

Length 178 m; draft 9.4 m.

Type: Ship (hazmat cat A). MMSI: 357702000.

Date/timePositionNaut miles runAvg speedWind from/ knotsBaromVisibWave heightAir tempDewpointWater temp
2014-Sep-02 23:33N 37°02' E 026°05'1413.8
2014-Sep-02 22:33N 36°54' E 026°19'1414.2
2014-Sep-02 21:33N 36°47' E 026°34'1414.4
2014-Sep-02 20:33N 36°39' E 026°49'1614.3
2014-Sep-02 19:27N 36°32' E 027°07'  
2014-Aug-31 05:26N 33°35' E 030°10'1214.2
2014-Aug-31 04:33N 33°23' E 030°08'1613.9
2014-Aug-31 03:24N 33°07' E 030°06'1213.9
2014-Aug-31 02:34N 32°56' E 030°03'2813.9
2014-Aug-31 00:33N 32°28' E 029°59'1414.2
2014-Aug-30 23:33N 32°14' E 029°56'1414.4
2014-Aug-30 22:33N 31°60' E 029°54'51 6.1
2014-Aug-30 14:10N 31°09' E 029°48'0 0.0
2014-Aug-30 13:10N 31°09' E 029°48'0 0.0
2014-Aug-30 02:29N 31°09' E 029°48'0 0.0
2014-Aug-29 23:29N 31°09' E 029°48'0 0.0
2014-Aug-29 22:11N 31°09' E 029°48'0 0.0
2014-Aug-29 16:10N 31°09' E 029°48'4 4.4
2014-Aug-29 15:16N 31°13' E 029°47'4 0.2
2014-Aug-28 19:23N 31°13' E 029°42'0 0.0
2014-Aug-28 18:32N 31°13' E 029°42'2 0.7
2014-Aug-28 15:33N 31°14' E 029°44'1312.1
2014-Aug-28 14:28N 31°26' E 029°51'22313.7
2014-Aug-27 22:16N 32°00' E 034°09'1014.5
2014-Aug-27 21:33N 31°57' E 034°21'3 0.1
2014-Aug-26 23:09N 31°55' E 034°23'1 0.9
2014-Aug-26 22:32N 31°55' E 034°23'2 1.0
2014-Aug-26 20:16N 31°56' E 034°20'0 0.6
2014-Aug-26 19:28N 31°56' E 034°20'5 5.6
2014-Aug-26 18:30N 31°53' E 034°25'3 2.9
2014-Aug-26 17:31N 31°52' E 034°28'1 1.0
2014-Aug-26 16:31N 31°52' E 034°28'1 1.1
2014-Aug-26 15:31N 31°53' E 034°27'1 1.3
2014-Aug-26 14:31N 31°54' E 034°25'1 1.5
2014-Aug-26 13:33N 31°55' E 034°24'1 1.5
2014-Aug-26 12:33N 31°56' E 034°22'1 1.4
2014-Aug-26 11:32N 31°56' E 034°21'0 0.4
2014-Aug-26 10:33N 31°56' E 034°21'4 2.0
2014-Aug-26 08:25N 31°55' E 034°26'29 8.7
2014-Aug-26 05:07N 32°21' E 034°40'813.6
2014-Aug-26 04:33N 32°28' E 034°42'1313.4
2014-Aug-26 03:33N 32°41' E 034°47'1212.5
2014-Aug-26 02:33N 32°52' E 034°53'8 2.5
2014-Aug-25 23:28N 32°49' E 035°01'0 0.0
2014-Aug-25 22:31N 32°49' E 035°01'0 0.0
2014-Aug-25 21:31N 32°49' E 035°01'0 0.0
2014-Aug-25 19:30N 32°49' E 035°01'0 0.0
2014-Aug-25 18:11N 32°49' E 035°01'0 0.0
2014-Aug-25 17:32N 32°49' E 035°01'0 0.1
2014-Aug-25 16:30N 32°49' E 035°01'3 3.1
2014-Aug-25 15:33N 32°52' E 035°00'0 0.3
2014-Aug-25 14:31N 32°52' E 035°01'0 0.0
2014-Aug-25 13:26N 32°52' E 035°01'0 0.0
2014-Aug-25 12:25N 32°52' E 035°01'0 0.0
2014-Aug-25 10:30N 32°52' E 035°01'0 0.0
2014-Aug-25 09:32N 32°52' E 035°01'0 0.0
2014-Aug-25 08:33N 32°52' E 035°01'2 2.4
2014-Aug-25 07:33N 32°52' E 034°58'1413.2
2014-Aug-25 06:29N 32°56' E 034°42'1415.0
2014-Aug-25 05:33N 32°58' E 034°25'1414.1
2014-Aug-25 04:33N 32°56' E 034°09'1514.7
2014-Aug-25 03:33N 32°46' E 033°56'1514.7
2014-Aug-25 02:33N 32°36' E 033°44'1414.4
2014-Aug-25 01:33N 32°26' E 033°31'1414.3
2014-Aug-25 00:33N 32°15' E 033°20'1514.4
2014-Aug-24 23:33N 32°05' E 033°08'1414.3
2014-Aug-24 22:33N 31°55' E 032°56'1414.5
2014-Aug-24 21:33N 31°45' E 032°43'1414.5
2014-Aug-24 20:33N 31°38' E 032°29'1312.5
2014-Aug-24 19:33N 31°27' E 032°22'1110.5
2014-Aug-24 18:33N 31°16' E 032°19'2 1.1
2014-Aug-24 16:31N 31°14' E 032°18'0 0.0
2014-Aug-24 15:31N 31°14' E 032°18'0 0.0
2014-Aug-24 14:20N 31°14' E 032°18'0 0.0
2014-Aug-24 13:31N 31°14' E 032°18'0 0.0
2014-Aug-24 12:33N 31°14' E 032°18'0 0.0
2014-Aug-24 11:09N 31°14' E 032°18'0 0.0
2014-Aug-24 10:33N 31°14' E 032°18'0 0.0
2014-Aug-24 09:07N 31°14' E 032°18'0 0.0
2014-Aug-24 08:34N 31°14' E 032°18'0 0.0
2014-Aug-24 07:07N 31°14' E 032°18'0 0.0
2014-Aug-24 04:13N 31°14' E 032°18'0 0.0
2014-Aug-24 03:31N 31°14' E 032°18'2 1.2
2014-Aug-24 01:33N 31°16' E 032°19'10 7.0
2014-Aug-24 00:11N 31°26' E 032°21'  
Track history (hours):
 
Tides and Currents Weather Stations Pressure Air Temp Water Temp Dewpoint Dewpoint Depression Visibility Wind Speed Wind Dir Waves Ship Positions

MSC Giovanna

Last reported at 2014-Sep-02 23:33 UTC. Time now 2014-Sep-02 23:43 UTC.
Position N 37°02' E 026°05'.

Length 178 m; draft 9.4 m.

Type: Ship (hazmat cat A). MMSI: 357702000.

Date/timePositionNaut miles runAvg speedWind from/ knotsBaromVisibWave heightAir tempDewpointWater temp
2014-Sep-02 23:33N 37°02' E 026°05'1413.8
2014-Sep-02 22:33N 36°54' E 026°19'1414.2
2014-Sep-02 21:33N 36°47' E 026°34'1414.4
2014-Sep-02 20:33N 36°39' E 026°49'1614.3
2014-Sep-02 19:27N 36°32' E 027°07'  
2014-Aug-31 05:26N 33°35' E 030°10'1214.2
2014-Aug-31 04:33N 33°23' E 030°08'1613.9
2014-Aug-31 03:24N 33°07' E 030°06'1213.9
2014-Aug-31 02:34N 32°56' E 030°03'2813.9
2014-Aug-31 00:33N 32°28' E 029°59'1414.2
2014-Aug-30 23:33N 32°14' E 029°56'1414.4
2014-Aug-30 22:33N 31°60' E 029°54'51 6.1
2014-Aug-30 14:10N 31°09' E 029°48'0 0.0
2014-Aug-30 13:10N 31°09' E 029°48'0 0.0
2014-Aug-30 02:29N 31°09' E 029°48'0 0.0
2014-Aug-29 23:29N 31°09' E 029°48'0 0.0
2014-Aug-29 22:11N 31°09' E 029°48'0 0.0
2014-Aug-29 16:10N 31°09' E 029°48'4 4.4
2014-Aug-29 15:16N 31°13' E 029°47'4 0.2
2014-Aug-28 19:23N 31°13' E 029°42'0 0.0
2014-Aug-28 18:32N 31°13' E 029°42'2 0.7
2014-Aug-28 15:33N 31°14' E 029°44'1312.1
2014-Aug-28 14:28N 31°26' E 029°51'22313.7
2014-Aug-27 22:16N 32°00' E 034°09'1014.5
2014-Aug-27 21:33N 31°57' E 034°21'3 0.1
2014-Aug-26 23:09N 31°55' E 034°23'1 0.9
2014-Aug-26 22:32N 31°55' E 034°23'2 1.0
2014-Aug-26 20:16N 31°56' E 034°20'0 0.6
2014-Aug-26 19:28N 31°56' E 034°20'5 5.6
2014-Aug-26 18:30N 31°53' E 034°25'3 2.9
2014-Aug-26 17:31N 31°52' E 034°28'1 1.0
2014-Aug-26 16:31N 31°52' E 034°28'1 1.1
2014-Aug-26 15:31N 31°53' E 034°27'1 1.3
2014-Aug-26 14:31N 31°54' E 034°25'1 1.5
2014-Aug-26 13:33N 31°55' E 034°24'1 1.5
2014-Aug-26 12:33N 31°56' E 034°22'1 1.4
2014-Aug-26 11:32N 31°56' E 034°21'0 0.4
2014-Aug-26 10:33N 31°56' E 034°21'4 2.0
2014-Aug-26 08:25N 31°55' E 034°26'29 8.7
2014-Aug-26 05:07N 32°21' E 034°40'813.6
2014-Aug-26 04:33N 32°28' E 034°42'1313.4
2014-Aug-26 03:33N 32°41' E 034°47'1212.5
2014-Aug-26 02:33N 32°52' E 034°53'8 2.5
2014-Aug-25 23:28N 32°49' E 035°01'0 0.0
2014-Aug-25 22:31N 32°49' E 035°01'0 0.0
2014-Aug-25 21:31N 32°49' E 035°01'0 0.0
2014-Aug-25 19:30N 32°49' E 035°01'0 0.0
2014-Aug-25 18:11N 32°49' E 035°01'0 0.0
2014-Aug-25 17:32N 32°49' E 035°01'0 0.1
2014-Aug-25 16:30N 32°49' E 035°01'3 3.1
2014-Aug-25 15:33N 32°52' E 035°00'0 0.3
2014-Aug-25 14:31N 32°52' E 035°01'0 0.0
2014-Aug-25 13:26N 32°52' E 035°01'0 0.0
2014-Aug-25 12:25N 32°52' E 035°01'0 0.0
2014-Aug-25 10:30N 32°52' E 035°01'0 0.0
2014-Aug-25 09:32N 32°52' E 035°01'0 0.0
2014-Aug-25 08:33N 32°52' E 035°01'2 2.4
2014-Aug-25 07:33N 32°52' E 034°58'1413.2
2014-Aug-25 06:29N 32°56' E 034°42'1415.0
2014-Aug-25 05:33N 32°58' E 034°25'1414.1
2014-Aug-25 04:33N 32°56' E 034°09'1514.7
2014-Aug-25 03:33N 32°46' E 033°56'1514.7
2014-Aug-25 02:33N 32°36' E 033°44'1414.4
2014-Aug-25 01:33N 32°26' E 033°31'1414.3
2014-Aug-25 00:33N 32°15' E 033°20'1514.4
2014-Aug-24 23:33N 32°05' E 033°08'1414.3
2014-Aug-24 22:33N 31°55' E 032°56'1414.5
2014-Aug-24 21:33N 31°45' E 032°43'1414.5
2014-Aug-24 20:33N 31°38' E 032°29'1312.5
2014-Aug-24 19:33N 31°27' E 032°22'1110.5
2014-Aug-24 18:33N 31°16' E 032°19'2 1.1
2014-Aug-24 16:31N 31°14' E 032°18'0 0.0
2014-Aug-24 15:31N 31°14' E 032°18'0 0.0
2014-Aug-24 14:20N 31°14' E 032°18'0 0.0
2014-Aug-24 13:31N 31°14' E 032°18'0 0.0
2014-Aug-24 12:33N 31°14' E 032°18'0 0.0
2014-Aug-24 11:09N 31°14' E 032°18'0 0.0
2014-Aug-24 10:33N 31°14' E 032°18'0 0.0
2014-Aug-24 09:07N 31°14' E 032°18'0 0.0
2014-Aug-24 08:34N 31°14' E 032°18'0 0.0
2014-Aug-24 07:07N 31°14' E 032°18'0 0.0
2014-Aug-24 04:13N 31°14' E 032°18'0 0.0
2014-Aug-24 03:31N 31°14' E 032°18'2 1.2
2014-Aug-24 01:33N 31°16' E 032°19'10 7.0
2014-Aug-24 00:11N 31°26' E 032°21'  

Dump ship's entire track history